createdAt,value
2019-02-18T00:00:50.154Z,8.00
2019-02-18T00:01:34.646Z,8.00
2019-02-18T00:02:10.717Z,8.00
2019-02-18T00:02:46.423Z,8.00
2019-02-18T00:03:22.002Z,7.90
2019-02-18T00:03:57.519Z,7.90
2019-02-18T00:04:33.069Z,7.90
2019-02-18T00:05:08.645Z,7.90
2019-02-18T00:05:44.154Z,7.90
2019-02-18T00:06:19.720Z,7.90
2019-02-18T00:06:55.785Z,7.80
2019-02-18T00:07:31.305Z,7.80
2019-02-18T00:08:06.924Z,7.80
2019-02-18T00:08:42.511Z,7.80
2019-02-18T00:09:18.158Z,7.80
2019-02-18T00:09:53.681Z,7.80
2019-02-18T00:10:29.567Z,7.80
2019-02-18T00:11:05.110Z,7.70
2019-02-18T00:11:40.689Z,7.80
2019-02-18T00:12:16.774Z,7.80
2019-02-18T00:12:52.636Z,7.70
2019-02-18T00:13:28.147Z,7.70
2019-02-18T00:14:04.080Z,7.70
2019-02-18T00:14:39.592Z,7.70
2019-02-18T00:15:15.096Z,7.70
2019-02-18T00:15:50.607Z,7.70
2019-02-18T00:16:26.131Z,7.60
2019-02-18T00:17:01.659Z,7.60
2019-02-18T00:17:37.268Z,7.60
2019-02-18T00:18:13.049Z,7.60
2019-02-18T00:18:48.627Z,7.60
2019-02-18T00:19:24.169Z,7.60
2019-02-18T00:20:00.094Z,7.60
2019-02-18T00:20:35.784Z,7.60
2019-02-18T00:21:11.282Z,7.60
2019-02-18T00:21:46.799Z,7.50
2019-02-18T00:22:22.307Z,7.50
2019-02-18T00:22:57.829Z,7.60
2019-02-18T00:23:33.330Z,7.60
2019-02-18T00:24:08.972Z,7.50
2019-02-18T00:24:44.486Z,7.50
2019-02-18T00:25:19.998Z,7.50
2019-02-18T00:25:55.547Z,7.50
2019-02-18T00:26:31.091Z,7.50
2019-02-18T00:27:06.595Z,7.50
2019-02-18T00:27:42.214Z,7.50
2019-02-18T00:28:17.739Z,7.50
2019-02-18T00:28:53.282Z,7.50
2019-02-18T00:29:28.799Z,7.50
2019-02-18T00:30:04.349Z,7.50
2019-02-18T00:30:40.922Z,7.40
2019-02-18T00:31:16.431Z,7.40
2019-02-18T00:31:52.026Z,7.40
2019-02-18T00:32:28.039Z,7.40
2019-02-18T00:33:03.567Z,7.40
2019-02-18T00:33:39.170Z,7.30
2019-02-18T00:34:14.676Z,7.40
2019-02-18T00:34:50.227Z,7.30
2019-02-18T00:35:25.809Z,7.30
2019-02-18T00:36:01.314Z,7.30
2019-02-18T00:36:37.827Z,7.30
2019-02-18T00:37:13.675Z,7.30
2019-02-18T00:37:49.547Z,7.30
2019-02-18T00:38:25.056Z,7.30
2019-02-18T00:39:00.999Z,7.20
2019-02-18T00:39:38.469Z,7.20
2019-02-18T00:40:14.287Z,7.20
2019-02-18T00:40:50.393Z,7.10
2019-02-18T00:41:25.900Z,7.20
2019-02-18T00:42:01.540Z,7.10
2019-02-18T00:42:37.072Z,7.20
2019-02-18T00:43:12.570Z,7.10
2019-02-18T00:43:48.108Z,7.10
2019-02-18T00:44:23.634Z,7.10
2019-02-18T00:44:59.243Z,7.10
2019-02-18T00:45:34.761Z,7.10
2019-02-18T00:46:10.340Z,7.10
2019-02-18T00:46:45.867Z,7.10
2019-02-18T00:47:21.453Z,7.10
2019-02-18T00:47:56.966Z,7.10
2019-02-18T00:48:33.105Z,7.10
2019-02-18T00:49:08.600Z,7.10
2019-02-18T00:49:44.094Z,7.10
2019-02-18T00:50:19.691Z,7.10
2019-02-18T00:50:55.622Z,7.10
2019-02-18T00:51:31.141Z,7.10
2019-02-18T00:52:06.973Z,7.10
2019-02-18T00:52:42.603Z,7.10
2019-02-18T00:53:18.422Z,7.00
2019-02-18T00:53:53.950Z,7.00
2019-02-18T00:54:29.521Z,7.00
2019-02-18T00:55:05.162Z,7.10
2019-02-18T00:55:40.986Z,7.10
2019-02-18T00:56:16.550Z,7.10
2019-02-18T00:56:52.083Z,7.10
2019-02-18T00:57:27.934Z,7.10
2019-02-18T00:58:03.434Z,7.10
2019-02-18T00:58:38.940Z,7.10
2019-02-18T00:59:14.485Z,7.10
2019-02-18T00:59:50.075Z,7.10
2019-02-18T01:00:25.864Z,7.10
2019-02-18T01:01:01.366Z,7.10
2019-02-18T01:01:36.987Z,7.10
2019-02-18T01:02:12.663Z,7.10
2019-02-18T01:02:48.199Z,7.10
2019-02-18T01:03:23.778Z,7.10
2019-02-18T01:03:59.324Z,7.10
2019-02-18T01:04:34.910Z,7.10
2019-02-18T01:05:10.970Z,7.10
2019-02-18T01:05:46.722Z,7.10
2019-02-18T01:06:22.237Z,7.10
2019-02-18T01:06:57.793Z,7.10
2019-02-18T01:07:35.146Z,7.10
2019-02-18T01:08:10.919Z,7.10
2019-02-18T01:08:46.680Z,7.10
2019-02-18T01:09:22.490Z,7.10
2019-02-18T01:09:58.323Z,7.10
2019-02-18T01:10:33.849Z,7.10
2019-02-18T01:11:09.370Z,7.10
2019-02-18T01:11:44.895Z,7.10
2019-02-18T01:12:20.821Z,7.00
2019-02-18T01:12:56.461Z,7.10
2019-02-18T01:13:31.991Z,7.10
2019-02-18T01:14:07.526Z,7.00
2019-02-18T01:14:43.161Z,7.00
2019-02-18T01:15:19.017Z,7.00
2019-02-18T01:15:54.526Z,7.00
2019-02-18T01:16:30.038Z,7.00
2019-02-18T01:17:05.837Z,7.00
2019-02-18T01:17:41.433Z,6.90
2019-02-18T01:18:16.949Z,7.00
2019-02-18T01:18:52.870Z,6.90
2019-02-18T01:19:29.322Z,6.90
2019-02-18T01:20:06.092Z,6.90
2019-02-18T01:20:41.834Z,6.90
2019-02-18T01:21:17.453Z,6.90
2019-02-18T01:21:53.215Z,6.90
2019-02-18T01:22:28.765Z,6.90
2019-02-18T01:23:04.277Z,6.90
2019-02-18T01:23:39.855Z,6.90
2019-02-18T01:24:15.397Z,6.90
2019-02-18T01:24:50.971Z,6.90
2019-02-18T01:25:26.847Z,6.90
2019-02-18T01:26:02.694Z,6.90
2019-02-18T01:26:38.513Z,6.90
2019-02-18T01:27:14.014Z,6.90
2019-02-18T01:27:49.559Z,6.90
2019-02-18T01:28:25.201Z,6.90
2019-02-18T01:29:00.719Z,6.90
2019-02-18T01:29:36.304Z,6.80
2019-02-18T01:30:13.779Z,6.90
2019-02-18T01:30:49.292Z,6.90
2019-02-18T01:31:24.806Z,6.90
2019-02-18T01:32:00.339Z,7.00
2019-02-18T01:32:36.525Z,7.00
2019-02-18T01:33:12.406Z,7.00
2019-02-18T01:33:48.301Z,7.00
2019-02-18T01:34:24.167Z,7.00
2019-02-18T01:35:00.016Z,7.00
2019-02-18T01:35:35.598Z,7.00
2019-02-18T01:36:11.180Z,7.00
2019-02-18T01:36:47.376Z,7.00
2019-02-18T01:37:23.182Z,7.00
2019-02-18T01:37:59.179Z,7.00
2019-02-18T01:38:35.051Z,7.00
2019-02-18T01:39:10.636Z,7.00
2019-02-18T01:39:46.211Z,7.10
2019-02-18T01:40:21.742Z,7.10
2019-02-18T01:40:57.346Z,7.10
2019-02-18T01:41:32.843Z,7.10
2019-02-18T01:42:08.359Z,7.10
2019-02-18T01:42:43.888Z,7.10
2019-02-18T01:43:19.409Z,7.10
2019-02-18T01:43:55.093Z,7.10
2019-02-18T01:44:30.640Z,7.10
2019-02-18T01:45:06.676Z,7.10
2019-02-18T01:45:42.262Z,7.00
2019-02-18T01:46:17.869Z,7.00
2019-02-18T01:46:53.420Z,7.00
2019-02-18T01:47:29.266Z,7.00
2019-02-18T01:48:04.804Z,6.90
2019-02-18T01:48:40.308Z,6.90
2019-02-18T01:49:16.076Z,6.90
2019-02-18T01:49:51.628Z,6.90
2019-02-18T01:50:27.501Z,6.90
2019-02-18T01:51:03.018Z,6.90
2019-02-18T01:51:39.619Z,6.80
2019-02-18T01:52:15.211Z,6.80
2019-02-18T01:52:50.745Z,6.70
2019-02-18T01:53:26.650Z,6.80
2019-02-18T01:54:02.167Z,6.70
2019-02-18T01:54:38.060Z,6.70
2019-02-18T01:55:13.666Z,6.70
2019-02-18T01:55:49.243Z,6.70
2019-02-18T01:56:24.829Z,6.60
2019-02-18T01:57:00.513Z,6.60
2019-02-18T01:57:36.401Z,6.60
2019-02-18T01:58:12.428Z,6.60
2019-02-18T01:58:47.942Z,6.60
2019-02-18T01:59:23.783Z,6.60
2019-02-18T01:59:59.578Z,6.60
2019-02-18T02:00:35.404Z,6.60
2019-02-18T02:01:11.018Z,6.60
2019-02-18T02:01:46.612Z,6.60
2019-02-18T02:02:23.485Z,6.60
2019-02-18T02:02:59.133Z,6.50
2019-02-18T02:03:35.324Z,6.60
2019-02-18T02:04:11.175Z,6.60
2019-02-18T02:04:47.337Z,6.50
2019-02-18T02:05:22.866Z,6.50
2019-02-18T02:05:58.694Z,6.50
2019-02-18T02:06:34.202Z,6.50
2019-02-18T02:07:09.992Z,6.50
2019-02-18T02:07:55.452Z,6.50
2019-02-18T02:08:23.103Z,6.50
2019-02-18T02:08:58.681Z,6.40
2019-02-18T02:09:34.274Z,6.40
2019-02-18T02:10:11.158Z,6.40
2019-02-18T02:10:46.722Z,6.40
2019-02-18T02:11:22.513Z,6.40
2019-02-18T02:11:58.075Z,6.40
2019-02-18T02:12:33.685Z,6.40
2019-02-18T02:13:38.202Z,6.40
2019-02-18T02:14:13.742Z,6.30
2019-02-18T02:14:49.254Z,6.30
2019-02-18T02:15:26.426Z,6.30
2019-02-18T02:16:03.800Z,6.30
2019-02-18T02:16:39.975Z,6.30
2019-02-18T02:17:15.502Z,6.30
2019-02-18T02:17:51.342Z,6.30
2019-02-18T02:18:26.872Z,6.30
2019-02-18T02:19:02.443Z,6.20
2019-02-18T02:19:38.056Z,6.20
2019-02-18T02:20:13.575Z,6.20
2019-02-18T02:20:49.420Z,6.20
2019-02-18T02:21:24.954Z,6.20
2019-02-18T02:22:00.567Z,6.20
2019-02-18T02:22:36.402Z,6.20
2019-02-18T02:23:11.957Z,6.20
2019-02-18T02:23:47.476Z,6.20
2019-02-18T02:24:23.102Z,6.20
2019-02-18T02:24:58.598Z,6.20
2019-02-18T02:25:34.147Z,6.20
2019-02-18T02:26:09.769Z,6.20
2019-02-18T02:26:45.381Z,6.20
2019-02-18T02:27:21.162Z,6.20
2019-02-18T02:27:56.798Z,6.20
2019-02-18T02:28:32.326Z,6.20
2019-02-18T02:29:07.977Z,6.20
2019-02-18T02:29:43.572Z,6.20
2019-02-18T02:30:19.252Z,6.10
2019-02-18T02:30:54.951Z,6.10
2019-02-18T02:31:30.467Z,6.10
2019-02-18T02:32:06.258Z,6.10
2019-02-18T02:32:41.955Z,6.10
2019-02-18T02:33:17.535Z,6.10
2019-02-18T02:33:53.122Z,6.10
2019-02-18T02:34:28.702Z,6.10
2019-02-18T02:35:04.198Z,6.10
2019-02-18T02:35:39.717Z,6.00
2019-02-18T02:36:15.328Z,6.00
2019-02-18T02:36:50.883Z,6.00
2019-02-18T02:37:26.472Z,6.00
2019-02-18T02:38:07.552Z,6.00
2019-02-18T02:38:39.314Z,6.00
2019-02-18T02:39:14.930Z,6.00
2019-02-18T02:39:50.487Z,6.00
2019-02-18T02:40:26.236Z,6.00
2019-02-18T02:41:01.746Z,6.00
2019-02-18T02:41:37.308Z,6.00
2019-02-18T02:42:13.078Z,5.90
2019-02-18T02:42:49.282Z,5.90
2019-02-18T02:43:25.538Z,5.90
2019-02-18T02:44:01.040Z,5.90
2019-02-18T02:44:36.569Z,5.90
2019-02-18T02:45:12.158Z,5.90
2019-02-18T02:45:47.655Z,5.90
2019-02-18T02:46:23.222Z,5.90
2019-02-18T02:46:59.799Z,5.90
2019-02-18T02:47:35.366Z,5.90
2019-02-18T02:48:10.869Z,5.80
2019-02-18T02:48:46.473Z,5.80
2019-02-18T02:49:22.201Z,5.80
2019-02-18T02:49:57.710Z,5.80
2019-02-18T02:50:33.466Z,5.80
2019-02-18T02:51:09.404Z,5.80
2019-02-18T02:51:44.984Z,5.80
2019-02-18T02:52:20.526Z,5.80
2019-02-18T02:52:56.470Z,5.80
2019-02-18T02:53:32.275Z,5.80
2019-02-18T02:54:08.110Z,5.80
2019-02-18T02:54:43.617Z,5.80
2019-02-18T02:55:19.770Z,5.80
2019-02-18T02:55:55.299Z,5.80
2019-02-18T02:56:30.866Z,5.80
2019-02-18T02:57:06.676Z,5.80
2019-02-18T02:57:42.321Z,5.70
2019-02-18T02:58:17.850Z,5.80
2019-02-18T02:58:53.414Z,5.80
2019-02-18T02:59:28.915Z,5.70
2019-02-18T03:00:05.263Z,5.70
2019-02-18T03:00:43.147Z,5.80
2019-02-18T03:01:18.649Z,5.70
2019-02-18T03:01:54.167Z,5.70
2019-02-18T03:02:30.868Z,5.80
2019-02-18T03:03:06.379Z,5.80
2019-02-18T03:03:41.998Z,5.70
2019-02-18T03:04:18.655Z,5.80
2019-02-18T03:04:54.214Z,5.70
2019-02-18T03:05:29.975Z,5.70
2019-02-18T03:06:05.807Z,5.70
2019-02-18T03:06:41.457Z,5.70
2019-02-18T03:07:16.988Z,5.70
2019-02-18T03:07:52.565Z,5.70
2019-02-18T03:08:28.072Z,5.70
2019-02-18T03:09:05.482Z,5.70
2019-02-18T03:09:41.190Z,5.60
2019-02-18T03:10:16.745Z,5.70
2019-02-18T03:10:52.523Z,5.60
2019-02-18T03:11:28.060Z,5.70
2019-02-18T03:12:03.566Z,5.60
2019-02-18T03:12:39.083Z,5.60
2019-02-18T03:13:14.858Z,5.60
2019-02-18T03:13:50.379Z,5.60
2019-02-18T03:14:25.951Z,5.60
2019-02-18T03:15:01.505Z,5.60
2019-02-18T03:15:37.012Z,5.60
2019-02-18T03:16:12.853Z,5.60
2019-02-18T03:16:48.371Z,5.60
2019-02-18T03:17:23.917Z,5.60
2019-02-18T03:17:59.431Z,5.60
2019-02-18T03:18:35.323Z,5.50
2019-02-18T03:19:10.860Z,5.60
2019-02-18T03:19:47.512Z,5.50
2019-02-18T03:20:23.318Z,5.50
2019-02-18T03:20:58.851Z,5.50
2019-02-18T03:21:34.410Z,5.50
2019-02-18T03:22:09.996Z,5.50
2019-02-18T03:22:45.873Z,5.50
2019-02-18T03:23:21.386Z,5.50
2019-02-18T03:23:56.963Z,5.50
2019-02-18T03:24:32.538Z,5.50
2019-02-18T03:25:21.970Z,5.50
2019-02-18T03:25:57.585Z,5.50
2019-02-18T03:26:33.095Z,5.50
2019-02-18T03:27:08.683Z,5.50
2019-02-18T03:27:44.215Z,5.50
2019-02-18T03:28:52.430Z,5.50
2019-02-18T03:30:03.238Z,5.50
2019-02-18T03:30:49.634Z,5.40
2019-02-18T03:31:27.630Z,5.40
2019-02-18T03:32:03.165Z,5.40
2019-02-18T03:32:47.846Z,5.40
2019-02-18T03:33:39.358Z,5.40
2019-02-18T03:34:38.935Z,5.40
2019-02-18T03:35:14.451Z,5.40
2019-02-18T03:35:50.008Z,5.30
2019-02-18T03:36:25.513Z,5.30
2019-02-18T03:37:01.302Z,5.30
2019-02-18T03:37:36.896Z,5.30
2019-02-18T03:38:12.442Z,5.30
2019-02-18T03:38:47.993Z,5.30
2019-02-18T03:39:23.486Z,5.30
2019-02-18T03:39:59.306Z,5.30
2019-02-18T03:40:34.825Z,5.30
2019-02-18T03:41:10.358Z,5.30
2019-02-18T03:41:45.871Z,5.30
2019-02-18T03:42:21.374Z,5.30
2019-02-18T03:42:57.239Z,5.30
2019-02-18T03:43:32.850Z,5.30
2019-02-18T03:44:08.369Z,5.30
2019-02-18T03:44:44.280Z,5.30
2019-02-18T03:45:19.795Z,5.20
2019-02-18T03:45:55.407Z,5.20
2019-02-18T03:46:30.923Z,5.20
2019-02-18T03:47:06.727Z,5.20
2019-02-18T03:47:42.503Z,5.20
2019-02-18T03:48:17.998Z,5.20
2019-02-18T03:48:53.593Z,5.20
2019-02-18T03:49:29.159Z,5.20
2019-02-18T03:50:04.747Z,5.20
2019-02-18T03:50:40.288Z,5.20
2019-02-18T03:51:15.867Z,5.20
2019-02-18T03:51:51.686Z,5.20
2019-02-18T03:52:27.232Z,5.20
2019-02-18T03:53:02.743Z,5.20
2019-02-18T03:53:38.717Z,5.20
2019-02-18T03:54:14.290Z,5.20
2019-02-18T03:54:49.867Z,5.20
2019-02-18T03:55:25.428Z,5.20
2019-02-18T03:56:01.023Z,5.10
2019-02-18T03:56:36.598Z,5.10
2019-02-18T03:57:12.102Z,5.20
2019-02-18T03:57:47.602Z,5.10
2019-02-18T03:58:23.122Z,5.10
2019-02-18T03:58:58.681Z,5.10
2019-02-18T03:59:34.522Z,5.10
2019-02-18T04:00:10.390Z,5.10
2019-02-18T04:00:45.908Z,5.10
2019-02-18T04:01:21.467Z,5.10
2019-02-18T04:01:57.064Z,5.10
2019-02-18T04:02:32.648Z,5.10
2019-02-18T04:03:08.340Z,5.10
2019-02-18T04:03:43.958Z,5.00
2019-02-18T04:04:19.477Z,5.10
2019-02-18T04:04:54.987Z,5.00
2019-02-18T04:05:30.535Z,5.10
2019-02-18T04:06:06.401Z,5.10
2019-02-18T04:06:42.138Z,5.00
2019-02-18T04:07:17.638Z,5.00
2019-02-18T04:07:53.158Z,5.10
2019-02-18T04:08:28.671Z,5.00
2019-02-18T04:09:05.871Z,5.00
2019-02-18T04:09:41.490Z,5.00
2019-02-18T04:10:17.029Z,5.10
2019-02-18T04:10:52.551Z,5.00
2019-02-18T04:11:28.154Z,5.00
2019-02-18T04:12:03.671Z,5.00
2019-02-18T04:12:39.442Z,5.00
2019-02-18T04:13:14.939Z,5.00
2019-02-18T04:13:50.465Z,5.00
2019-02-18T04:14:25.987Z,5.00
2019-02-18T04:15:01.572Z,5.00
2019-02-18T04:15:37.153Z,5.00
2019-02-18T04:16:13.046Z,5.00
2019-02-18T04:16:48.577Z,5.00
2019-02-18T04:17:24.256Z,5.00
2019-02-18T04:17:59.799Z,5.00
2019-02-18T04:18:35.314Z,4.90
2019-02-18T04:19:11.802Z,4.90
2019-02-18T04:19:47.314Z,4.90
2019-02-18T04:20:22.838Z,4.90
2019-02-18T04:20:58.423Z,4.90
2019-02-18T04:21:33.942Z,4.90
2019-02-18T04:22:09.894Z,4.90
2019-02-18T04:22:45.768Z,4.90
2019-02-18T04:23:21.283Z,4.90
2019-02-18T04:23:56.799Z,4.90
2019-02-18T04:24:32.669Z,4.90
2019-02-18T04:25:08.234Z,4.90
2019-02-18T04:25:44.024Z,4.90
2019-02-18T04:26:19.523Z,4.90
2019-02-18T04:26:55.439Z,4.90
2019-02-18T04:27:30.983Z,4.90
2019-02-18T04:28:06.502Z,4.90
2019-02-18T04:28:42.487Z,4.90
2019-02-18T04:29:18.381Z,4.90
2019-02-18T04:29:53.974Z,4.80
2019-02-18T04:30:29.488Z,4.80
2019-02-18T04:31:06.294Z,4.80
2019-02-18T04:31:42.123Z,4.80
2019-02-18T04:32:17.636Z,4.90
2019-02-18T04:32:53.233Z,4.80
2019-02-18T04:33:28.811Z,4.80
2019-02-18T04:34:04.436Z,4.80
2019-02-18T04:34:39.947Z,4.80
2019-02-18T04:35:15.862Z,4.80
2019-02-18T04:35:51.373Z,4.80
2019-02-18T04:36:27.061Z,4.80
2019-02-18T04:37:02.638Z,4.80
2019-02-18T04:37:38.188Z,4.80
2019-02-18T04:38:13.766Z,4.80
2019-02-18T04:38:54.120Z,4.80
2019-02-18T04:39:26.666Z,4.80
2019-02-18T04:40:02.190Z,4.80
2019-02-18T04:40:37.835Z,4.70
2019-02-18T04:41:13.482Z,4.80
2019-02-18T04:41:49.342Z,4.80
2019-02-18T04:42:24.946Z,4.80
2019-02-18T04:43:00.767Z,4.80
2019-02-18T04:43:36.297Z,4.80
2019-02-18T04:44:12.467Z,4.80
2019-02-18T04:45:06.358Z,4.70
2019-02-18T04:46:00.469Z,4.80
2019-02-18T04:46:54.342Z,4.80
2019-02-18T04:47:29.858Z,4.80
2019-02-18T04:48:05.435Z,4.70
2019-02-18T04:48:41.101Z,4.80
2019-02-18T04:49:16.633Z,4.70
2019-02-18T04:49:52.197Z,4.70
2019-02-18T04:50:27.752Z,4.70
2019-02-18T04:51:03.332Z,4.70
2019-02-18T04:51:38.867Z,4.70
2019-02-18T04:52:14.426Z,4.70
2019-02-18T04:52:49.930Z,4.70
2019-02-18T04:53:25.557Z,4.70
2019-02-18T04:54:01.078Z,4.70
2019-02-18T04:54:36.964Z,4.70
2019-02-18T04:55:12.471Z,4.80
2019-02-18T04:55:48.006Z,4.70
2019-02-18T04:56:23.590Z,4.80
2019-02-18T04:56:59.414Z,4.70
2019-02-18T04:57:34.922Z,4.70
2019-02-18T04:58:10.447Z,4.80
2019-02-18T04:58:46.239Z,4.70
2019-02-18T04:59:22.007Z,4.80
2019-02-18T04:59:57.541Z,4.80
2019-02-18T05:00:33.157Z,4.70
2019-02-18T05:01:08.721Z,4.70
2019-02-18T05:01:44.603Z,4.70
2019-02-18T05:02:20.856Z,4.70
2019-02-18T05:02:57.294Z,4.70
2019-02-18T05:03:33.100Z,4.70
2019-02-18T05:04:08.618Z,4.70
2019-02-18T05:04:45.093Z,4.70
2019-02-18T05:05:20.642Z,4.70
2019-02-18T05:05:57.942Z,4.70
2019-02-18T05:06:33.690Z,4.70
2019-02-18T05:07:09.198Z,4.70
2019-02-18T05:07:44.749Z,4.70
2019-02-18T05:08:20.563Z,4.70
2019-02-18T05:09:05.122Z,4.70
2019-02-18T05:09:33.740Z,4.70
2019-02-18T05:10:09.753Z,4.70
2019-02-18T05:10:45.256Z,4.70
2019-02-18T05:11:20.759Z,4.60
2019-02-18T05:11:56.310Z,4.70
2019-02-18T05:12:31.802Z,4.60
2019-02-18T05:13:07.331Z,4.60
2019-02-18T05:13:45.786Z,4.70
2019-02-18T05:14:20.298Z,4.60
2019-02-18T05:14:55.812Z,4.60
2019-02-18T05:15:31.818Z,4.60
2019-02-18T05:16:07.377Z,4.60
2019-02-18T05:16:42.976Z,4.60
2019-02-18T05:17:18.531Z,4.60
2019-02-18T05:17:54.351Z,4.60
2019-02-18T05:18:30.272Z,4.60
2019-02-18T05:19:06.118Z,4.60
2019-02-18T05:19:41.729Z,4.60
2019-02-18T05:20:17.364Z,4.60
2019-02-18T05:20:52.910Z,4.60
2019-02-18T05:21:28.506Z,4.60
2019-02-18T05:22:04.039Z,4.60
2019-02-18T05:22:39.810Z,4.60
2019-02-18T05:23:15.318Z,4.60
2019-02-18T05:23:50.898Z,4.60
2019-02-18T05:24:26.474Z,4.60
2019-02-18T05:25:02.089Z,4.60
2019-02-18T05:25:37.677Z,4.60
2019-02-18T05:26:13.283Z,4.60
2019-02-18T05:26:49.106Z,4.60
2019-02-18T05:27:33.085Z,4.60
2019-02-18T05:28:02.192Z,4.60
2019-02-18T05:28:38.357Z,4.60
2019-02-18T05:29:13.838Z,4.60
2019-02-18T05:29:49.557Z,4.60
2019-02-18T05:30:25.063Z,4.60
2019-02-18T05:31:00.896Z,4.70
2019-02-18T05:31:36.398Z,4.60
2019-02-18T05:32:11.999Z,4.60
2019-02-18T05:32:47.851Z,4.60
2019-02-18T05:33:23.368Z,4.60
2019-02-18T05:33:58.881Z,4.60
2019-02-18T05:34:34.410Z,4.60
2019-02-18T05:35:10.026Z,4.60
2019-02-18T05:35:45.752Z,4.60
2019-02-18T05:36:21.341Z,4.60
2019-02-18T05:36:56.828Z,4.50
2019-02-18T05:37:32.626Z,4.50
2019-02-18T05:38:08.124Z,4.60
2019-02-18T05:38:43.751Z,4.50
2019-02-18T05:39:19.235Z,4.50
2019-02-18T05:39:55.552Z,4.50
2019-02-18T05:40:31.164Z,4.50
2019-02-18T05:41:06.667Z,4.50
2019-02-18T05:41:42.424Z,4.50
2019-02-18T05:42:18.052Z,4.50
2019-02-18T05:42:53.623Z,4.50
2019-02-18T05:43:29.449Z,4.50
2019-02-18T05:44:04.942Z,4.50
2019-02-18T05:44:40.577Z,4.50
2019-02-18T05:45:16.348Z,4.50
2019-02-18T05:45:51.847Z,4.50
2019-02-18T05:46:27.425Z,4.50
2019-02-18T05:47:02.955Z,4.50
2019-02-18T05:47:38.812Z,4.50
2019-02-18T05:48:17.506Z,4.50
2019-02-18T05:48:53.095Z,4.50
2019-02-18T05:49:28.618Z,4.50
2019-02-18T05:50:04.555Z,4.50
2019-02-18T05:50:40.171Z,4.50
2019-02-18T05:51:15.883Z,4.50
2019-02-18T05:51:52.027Z,4.50
2019-02-18T05:52:27.522Z,4.50
2019-02-18T05:53:03.031Z,4.50
2019-02-18T05:53:38.764Z,4.40
2019-02-18T05:54:14.259Z,4.50
2019-02-18T05:54:49.880Z,4.40
2019-02-18T05:55:25.488Z,4.40
2019-02-18T05:56:01.106Z,4.40
2019-02-18T05:56:36.618Z,4.50
2019-02-18T05:57:12.253Z,4.40
2019-02-18T05:57:47.763Z,4.40
2019-02-18T05:58:23.398Z,4.40
2019-02-18T05:58:58.969Z,4.40
2019-02-18T05:59:34.494Z,4.40
2019-02-18T06:00:10.817Z,4.40
2019-02-18T06:00:46.412Z,4.40
2019-02-18T06:01:21.947Z,4.40
2019-02-18T06:01:58.710Z,4.40
2019-02-18T06:02:34.209Z,4.30
2019-02-18T06:03:09.771Z,4.30
2019-02-18T06:03:45.323Z,4.30
2019-02-18T06:04:21.062Z,4.30
2019-02-18T06:04:56.796Z,4.30
2019-02-18T06:05:32.339Z,4.30
2019-02-18T06:06:07.919Z,4.30
2019-02-18T06:06:43.739Z,4.30
2019-02-18T06:07:19.314Z,4.30
2019-02-18T06:07:54.814Z,4.30
2019-02-18T06:08:30.298Z,4.30
2019-02-18T06:09:06.401Z,4.30
2019-02-18T06:09:42.022Z,4.30
2019-02-18T06:10:17.540Z,4.30
2019-02-18T06:10:53.175Z,4.30
2019-02-18T06:11:28.924Z,4.30
2019-02-18T06:12:04.447Z,4.30
2019-02-18T06:12:40.044Z,4.30
2019-02-18T06:13:15.896Z,4.30
2019-02-18T06:13:51.509Z,4.30
2019-02-18T06:14:27.102Z,4.30
2019-02-18T06:15:02.628Z,4.30
2019-02-18T06:15:38.203Z,4.30
2019-02-18T06:16:13.741Z,4.30
2019-02-18T06:16:49.344Z,4.30
2019-02-18T06:17:24.890Z,4.20
2019-02-18T06:18:00.428Z,4.20
2019-02-18T06:18:36.342Z,4.20
2019-02-18T06:19:11.846Z,4.20
2019-02-18T06:19:47.393Z,4.20
2019-02-18T06:20:22.884Z,4.20
2019-02-18T06:20:58.374Z,4.20
2019-02-18T06:21:34.220Z,4.20
2019-02-18T06:22:10.272Z,4.20
2019-02-18T06:22:45.843Z,4.10
2019-02-18T06:23:21.334Z,4.10
2019-02-18T06:23:56.867Z,4.10
2019-02-18T06:24:32.790Z,4.10
2019-02-18T06:25:08.295Z,4.10
2019-02-18T06:25:44.026Z,4.10
2019-02-18T06:26:20.113Z,4.10
2019-02-18T06:26:55.618Z,4.10
2019-02-18T06:27:31.131Z,4.10
2019-02-18T06:28:06.685Z,4.10
2019-02-18T06:28:42.191Z,4.10
2019-02-18T06:29:17.714Z,4.10
2019-02-18T06:29:53.246Z,4.10
2019-02-18T06:30:28.823Z,4.10
2019-02-18T06:31:04.335Z,4.10
2019-02-18T06:31:39.937Z,4.10
2019-02-18T06:32:15.445Z,4.10
2019-02-18T06:32:51.433Z,4.10
2019-02-18T06:33:28.345Z,4.00
2019-02-18T06:34:04.178Z,4.10
2019-02-18T06:34:39.684Z,4.10
2019-02-18T06:35:15.234Z,4.10
2019-02-18T06:35:50.800Z,4.10
2019-02-18T06:36:26.334Z,4.00
2019-02-18T06:37:01.856Z,4.00
2019-02-18T06:37:37.422Z,4.00
2019-02-18T06:38:12.956Z,4.10
2019-02-18T06:38:48.459Z,4.10
2019-02-18T06:39:24.056Z,4.00
2019-02-18T06:39:59.587Z,4.00
2019-02-18T06:40:35.145Z,4.00
2019-02-18T06:41:10.647Z,4.00
2019-02-18T06:41:46.163Z,4.00
2019-02-18T06:42:21.785Z,4.00
2019-02-18T06:42:57.368Z,4.00
2019-02-18T06:43:32.907Z,4.00
2019-02-18T06:44:08.409Z,4.00
2019-02-18T06:44:52.136Z,4.00
2019-02-18T06:45:46.726Z,4.00
2019-02-18T06:46:47.175Z,4.00
2019-02-18T06:47:25.350Z,4.00
2019-02-18T06:48:02.381Z,4.00
2019-02-18T06:48:42.325Z,4.00
2019-02-18T06:49:19.966Z,4.00
2019-02-18T06:49:56.509Z,4.00
2019-02-18T06:50:32.079Z,4.00
2019-02-18T06:51:07.634Z,4.00
2019-02-18T06:51:43.421Z,4.00
2019-02-18T06:52:20.066Z,4.00
2019-02-18T06:52:56.091Z,4.00
2019-02-18T06:53:31.916Z,4.00
2019-02-18T06:54:07.726Z,4.00
2019-02-18T06:54:43.687Z,4.00
2019-02-18T06:55:19.175Z,4.00
2019-02-18T06:55:55.032Z,4.00
2019-02-18T06:56:49.629Z,4.00
2019-02-18T06:57:39.378Z,4.00
2019-02-18T06:58:37.006Z,4.00
2019-02-18T06:59:19.450Z,4.00
2019-02-18T06:59:57.220Z,4.00
2019-02-18T07:00:44.071Z,4.00
2019-02-18T07:01:25.436Z,4.00
2019-02-18T07:02:06.065Z,4.00
2019-02-18T07:02:52.647Z,4.00
2019-02-18T07:03:46.306Z,4.00
2019-02-18T07:04:34.584Z,4.10
2019-02-18T07:05:30.081Z,4.10
2019-02-18T07:06:09.959Z,4.10
2019-02-18T07:06:57.954Z,4.10
2019-02-18T07:08:02.003Z,4.10
2019-02-18T07:08:50.928Z,4.10
2019-02-18T07:09:51.804Z,4.10
2019-02-18T07:10:35.862Z,4.10
2019-02-18T07:11:16.025Z,4.10
2019-02-18T07:11:56.850Z,4.10
2019-02-18T07:12:35.450Z,4.10
2019-02-18T07:13:11.248Z,4.10
2019-02-18T07:13:46.760Z,4.10
2019-02-18T07:14:22.270Z,4.20
2019-02-18T07:14:57.812Z,4.10
2019-02-18T07:15:33.402Z,4.10
2019-02-18T07:16:08.973Z,4.20
2019-02-18T07:16:44.755Z,4.20
2019-02-18T07:17:20.273Z,4.20
2019-02-18T07:17:55.762Z,4.20
2019-02-18T07:18:31.302Z,4.20
2019-02-18T07:19:06.909Z,4.20
2019-02-18T07:19:42.421Z,4.20
2019-02-18T07:20:17.984Z,4.20
2019-02-18T07:20:53.624Z,4.20
2019-02-18T07:21:29.198Z,4.20
2019-02-18T07:22:05.816Z,4.20
2019-02-18T07:22:41.367Z,4.20
2019-02-18T07:23:16.996Z,4.20
2019-02-18T07:23:52.501Z,4.20
2019-02-18T07:24:28.083Z,4.20
2019-02-18T07:25:03.771Z,4.20
2019-02-18T07:25:39.373Z,4.20
2019-02-18T07:26:14.884Z,4.20
2019-02-18T07:26:50.393Z,4.20
2019-02-18T07:27:25.944Z,4.20
2019-02-18T07:28:01.759Z,4.20
2019-02-18T07:28:37.313Z,4.20
2019-02-18T07:29:12.819Z,4.20
2019-02-18T07:29:48.402Z,4.20
2019-02-18T07:30:23.900Z,4.20
2019-02-18T07:30:59.712Z,4.20
2019-02-18T07:31:35.214Z,4.20
2019-02-18T07:32:11.084Z,4.20
2019-02-18T07:32:46.589Z,4.30
2019-02-18T07:33:22.111Z,4.30
2019-02-18T07:33:58.028Z,4.20
2019-02-18T07:34:33.547Z,4.30
2019-02-18T07:35:09.479Z,4.30
2019-02-18T07:35:45.015Z,4.30
2019-02-18T07:36:20.767Z,4.30
2019-02-18T07:36:56.275Z,4.30
2019-02-18T07:37:31.885Z,4.30
2019-02-18T07:38:07.472Z,4.30
2019-02-18T07:38:42.992Z,4.30
2019-02-18T07:39:18.964Z,4.30
2019-02-18T07:40:01.066Z,4.30
2019-02-18T07:40:31.962Z,4.30
2019-02-18T07:41:08.645Z,4.30
2019-02-18T07:41:44.482Z,4.40
2019-02-18T07:42:20.355Z,4.40
2019-02-18T07:42:55.889Z,4.40
2019-02-18T07:43:31.430Z,4.40
2019-02-18T07:44:06.931Z,4.40
2019-02-18T07:44:42.466Z,4.40
2019-02-18T07:45:17.978Z,4.40
2019-02-18T07:45:53.597Z,4.40
2019-02-18T07:46:29.414Z,4.40
2019-02-18T07:47:05.190Z,4.40
2019-02-18T07:47:40.805Z,4.40
2019-02-18T07:48:16.347Z,4.40
2019-02-18T07:48:51.881Z,4.40
2019-02-18T07:49:27.398Z,4.40
2019-02-18T07:50:02.901Z,4.50
2019-02-18T07:50:38.553Z,4.50
2019-02-18T07:51:14.068Z,4.50
2019-02-18T07:51:49.621Z,4.50
2019-02-18T07:52:25.534Z,4.50
2019-02-18T07:53:01.111Z,4.50
2019-02-18T07:53:36.624Z,4.50
2019-02-18T07:54:12.183Z,4.50
2019-02-18T07:54:47.704Z,4.50
2019-02-18T07:55:23.508Z,4.50
2019-02-18T07:55:59.050Z,4.50
2019-02-18T07:56:34.857Z,4.60
2019-02-18T07:57:10.470Z,4.60
2019-02-18T07:57:46.022Z,4.60
2019-02-18T07:58:22.531Z,4.60
2019-02-18T07:58:58.014Z,4.60
2019-02-18T07:59:33.530Z,4.60
2019-02-18T08:00:10.855Z,4.60
2019-02-18T08:00:46.711Z,4.60
2019-02-18T08:01:22.249Z,4.60
2019-02-18T08:01:57.753Z,4.70
2019-02-18T08:02:33.262Z,4.70
2019-02-18T08:03:09.083Z,4.70
2019-02-18T08:03:44.895Z,4.70
2019-02-18T08:04:20.425Z,4.70
2019-02-18T08:04:56.609Z,4.80